createdAt,value
2022-10-18T00:00:22.097Z,1.04
2022-10-18T00:01:21.671Z,1.04
2022-10-18T00:02:21.848Z,1.04
2022-10-18T00:03:21.940Z,1.04
2022-10-18T00:04:22.124Z,1.04
2022-10-18T00:05:22.257Z,1.04
2022-10-18T00:06:22.381Z,1.04
2022-10-18T00:07:22.551Z,1.04
2022-10-18T00:08:22.690Z,1.04
2022-10-18T00:09:22.843Z,1.04
2022-10-18T00:10:23.008Z,1.04
2022-10-18T00:11:23.149Z,1.04
2022-10-18T00:12:23.292Z,1.04
2022-10-18T00:13:23.449Z,1.04
2022-10-18T00:14:23.624Z,1.04
2022-10-18T00:15:24.275Z,1.04
2022-10-18T00:16:23.838Z,1.04
2022-10-18T00:17:23.952Z,1.04
2022-10-18T00:18:24.108Z,1.04
2022-10-18T00:19:24.808Z,1.04
2022-10-18T00:20:24.410Z,1.04
2022-10-18T00:21:24.569Z,1.04
2022-10-18T00:22:24.719Z,1.04
2022-10-18T00:23:24.818Z,1.04
2022-10-18T00:24:24.961Z,1.04
2022-10-18T00:25:25.122Z,1.04
2022-10-18T00:26:25.302Z,1.04
2022-10-18T00:27:25.414Z,1.04
2022-10-18T00:28:25.614Z,1.04
2022-10-18T00:29:25.736Z,1.04
2022-10-18T00:30:26.382Z,1.04
2022-10-18T00:31:25.923Z,1.04
2022-10-18T00:32:26.110Z,1.04
2022-10-18T00:33:26.234Z,1.04
2022-10-18T00:34:26.386Z,1.04
2022-10-18T00:35:26.533Z,1.04
2022-10-18T00:36:26.568Z,1.04
2022-10-18T00:37:27.320Z,1.04
2022-10-18T00:38:26.894Z,1.04
2022-10-18T00:39:27.042Z,1.04
2022-10-18T00:40:27.201Z,1.04
2022-10-18T00:41:27.353Z,1.04
2022-10-18T00:42:27.551Z,1.04
2022-10-18T00:43:27.652Z,1.04
2022-10-18T00:44:27.761Z,1.04
2022-10-18T00:45:28.412Z,1.04
2022-10-18T00:46:28.000Z,1.04
2022-10-18T00:47:28.104Z,1.04
2022-10-18T00:48:28.254Z,1.04
2022-10-18T00:49:28.414Z,1.04
2022-10-18T00:50:28.524Z,1.04
2022-10-18T00:51:28.670Z,1.04
2022-10-18T00:52:29.077Z,1.04
2022-10-18T00:53:28.964Z,1.04
2022-10-18T00:54:29.080Z,1.04
2022-10-18T00:55:29.225Z,1.04
2022-10-18T00:56:29.377Z,1.04
2022-10-18T00:57:29.489Z,1.04
2022-10-18T00:58:29.580Z,1.04
2022-10-18T00:59:29.727Z,1.04
2022-10-18T01:00:31.354Z,1.04
2022-10-18T01:01:30.098Z,1.04
2022-10-18T01:02:30.485Z,1.04
2022-10-18T01:03:30.245Z,1.04
2022-10-18T01:04:30.409Z,1.04
2022-10-18T01:05:30.538Z,1.04
2022-10-18T01:06:30.689Z,1.04
2022-10-18T01:07:31.109Z,1.04
2022-10-18T01:08:31.010Z,1.04
2022-10-18T01:09:31.146Z,1.04
2022-10-18T01:10:31.233Z,1.04
2022-10-18T01:11:31.362Z,1.04
2022-10-18T01:12:31.507Z,1.04
2022-10-18T01:13:31.663Z,1.04
2022-10-18T01:14:31.774Z,1.04
2022-10-18T01:15:31.851Z,1.04
2022-10-18T01:16:32.010Z,1.04
2022-10-18T01:17:32.430Z,1.04
2022-10-18T01:18:32.262Z,1.04
2022-10-18T01:19:32.414Z,1.04
2022-10-18T01:20:32.517Z,1.04
2022-10-18T01:21:32.670Z,1.04
2022-10-18T01:22:32.778Z,1.04
2022-10-18T01:23:32.883Z,1.04
2022-10-18T01:24:33.021Z,1.04
2022-10-18T01:25:33.170Z,1.04
2022-10-18T01:26:33.276Z,1.04
2022-10-18T01:27:33.682Z,1.04
2022-10-18T01:28:33.649Z,1.04
2022-10-18T01:29:33.729Z,1.04
2022-10-18T01:30:34.394Z,1.04
2022-10-18T01:31:33.977Z,1.04
2022-10-18T01:32:34.154Z,1.04
2022-10-18T01:33:34.306Z,1.04
2022-10-18T01:34:34.494Z,1.04
2022-10-18T01:35:34.589Z,1.04
2022-10-18T01:36:34.757Z,1.04
2022-10-18T01:37:34.898Z,1.04
2022-10-18T01:38:34.997Z,1.04
2022-10-18T01:39:35.147Z,1.04
2022-10-18T01:40:35.306Z,1.04
2022-10-18T01:41:35.444Z,1.04
2022-10-18T01:42:35.610Z,1.04
2022-10-18T01:43:35.767Z,1.04
2022-10-18T01:44:35.916Z,1.04
2022-10-18T01:45:36.606Z,1.04
2022-10-18T01:46:36.154Z,1.04
2022-10-18T01:47:36.263Z,1.04
2022-10-18T01:48:36.369Z,1.04
2022-10-18T01:49:36.519Z,1.04
2022-10-18T01:50:36.716Z,1.04
2022-10-18T01:51:36.814Z,1.04
2022-10-18T01:52:36.914Z,1.04
2022-10-18T01:53:37.085Z,1.04
2022-10-18T01:54:37.235Z,1.04
2022-10-18T01:55:37.315Z,1.04
2022-10-18T01:56:37.479Z,1.04
2022-10-18T01:57:37.640Z,1.04
2022-10-18T01:58:37.750Z,1.04
2022-10-18T01:59:37.889Z,1.04
2022-10-18T02:00:38.546Z,1.04
2022-10-18T02:01:38.136Z,1.04
2022-10-18T02:02:38.237Z,1.04
2022-10-18T02:03:38.352Z,1.04
2022-10-18T02:04:38.493Z,1.04
2022-10-18T02:05:38.627Z,1.04
2022-10-18T02:06:38.766Z,1.04
2022-10-18T02:07:38.845Z,1.04
2022-10-18T02:08:39.005Z,1.04
2022-10-18T02:09:39.109Z,1.04
2022-10-18T02:10:39.257Z,1.04
2022-10-18T02:11:39.404Z,1.04
2022-10-18T02:12:39.556Z,1.04
2022-10-18T02:13:39.660Z,1.04
2022-10-18T02:14:39.801Z,1.04
2022-10-18T02:15:39.971Z,1.04
2022-10-18T02:16:40.123Z,1.04
2022-10-18T02:17:40.256Z,1.04
2022-10-18T02:18:40.326Z,1.04
2022-10-18T02:19:40.490Z,1.04
2022-10-18T02:20:40.627Z,1.04
2022-10-18T02:21:40.765Z,1.04
2022-10-18T02:22:40.878Z,1.04
2022-10-18T02:23:40.983Z,1.04
2022-10-18T02:24:41.132Z,1.04
2022-10-18T02:25:41.290Z,1.04
2022-10-18T02:26:41.445Z,1.04
2022-10-18T02:27:41.632Z,1.04
2022-10-18T02:28:42.260Z,1.04
2022-10-18T02:29:42.295Z,1.04
2022-10-18T02:30:41.930Z,1.04
2022-10-18T02:31:42.109Z,1.04
2022-10-18T02:32:42.252Z,1.04
2022-10-18T02:33:42.393Z,1.04
2022-10-18T02:34:42.506Z,1.04
2022-10-18T02:35:42.653Z,1.04
2022-10-18T02:36:42.803Z,1.04
2022-10-18T02:37:42.954Z,1.04
2022-10-18T02:38:43.049Z,1.04
2022-10-18T02:39:43.216Z,1.04
2022-10-18T02:40:43.367Z,1.04
2022-10-18T02:41:43.514Z,1.04
2022-10-18T02:42:43.671Z,1.04
2022-10-18T02:43:43.839Z,1.04
2022-10-18T02:44:44.469Z,1.04
2022-10-18T02:45:44.107Z,1.04
2022-10-18T02:46:44.277Z,1.04
2022-10-18T02:47:44.427Z,1.04
2022-10-18T02:48:44.568Z,1.04
2022-10-18T02:49:44.726Z,1.04
2022-10-18T02:50:44.878Z,1.04
2022-10-18T02:51:45.035Z,1.04
2022-10-18T02:52:45.180Z,1.04
2022-10-18T02:53:45.332Z,1.04
2022-10-18T02:54:45.482Z,1.04
2022-10-18T02:55:45.657Z,1.04
2022-10-18T02:56:45.790Z,1.04
2022-10-18T02:57:45.939Z,1.04
2022-10-18T02:58:46.101Z,1.04
2022-10-18T02:59:46.793Z,1.04
2022-10-18T03:00:46.396Z,1.04
2022-10-18T03:01:46.624Z,1.04
2022-10-18T03:02:46.694Z,1.04
2022-10-18T03:03:46.849Z,1.04
2022-10-18T03:04:46.997Z,1.04
2022-10-18T03:05:47.155Z,1.04
2022-10-18T03:06:47.265Z,1.04
2022-10-18T03:07:47.408Z,1.04
2022-10-18T03:08:47.560Z,1.04
2022-10-18T03:09:47.713Z,1.04
2022-10-18T03:10:47.903Z,1.04
2022-10-18T03:11:48.017Z,1.04
2022-10-18T03:12:48.166Z,1.04
2022-10-18T03:13:48.320Z,1.04
2022-10-18T03:14:49.102Z,1.04
2022-10-18T03:15:48.641Z,1.04
2022-10-18T03:16:48.722Z,1.04
2022-10-18T03:17:48.832Z,1.04
2022-10-18T03:18:48.976Z,1.04
2022-10-18T03:19:49.129Z,1.04
2022-10-18T03:20:49.271Z,1.04
2022-10-18T03:21:49.380Z,1.04
2022-10-18T03:22:49.536Z,1.04
2022-10-18T03:23:49.640Z,1.04
2022-10-18T03:24:49.792Z,1.04
2022-10-18T03:25:49.937Z,1.04
2022-10-18T03:26:50.092Z,1.04
2022-10-18T03:27:50.241Z,1.04
2022-10-18T03:28:50.470Z,1.04
2022-10-18T03:29:51.197Z,1.04
2022-10-18T03:30:50.690Z,1.04
2022-10-18T03:31:50.801Z,1.04
2022-10-18T03:32:50.967Z,1.04
2022-10-18T03:33:51.118Z,1.04
2022-10-18T03:34:51.253Z,1.04
2022-10-18T03:35:51.399Z,1.04
2022-10-18T03:36:51.560Z,1.04
2022-10-18T03:37:51.716Z,1.04
2022-10-18T03:38:51.816Z,1.04
2022-10-18T03:39:51.960Z,1.04
2022-10-18T03:40:52.137Z,1.04
2022-10-18T03:41:52.286Z,1.04
2022-10-18T03:42:52.416Z,1.04
2022-10-18T03:43:52.572Z,1.04
2022-10-18T03:44:53.717Z,1.04
2022-10-18T03:45:52.820Z,1.04
2022-10-18T03:46:53.004Z,1.04
2022-10-18T03:47:53.134Z,1.04
2022-10-18T03:48:53.280Z,1.04
2022-10-18T03:49:54.754Z,1.04
2022-10-18T03:50:53.543Z,1.04
2022-10-18T03:51:53.628Z,1.04
2022-10-18T03:52:53.785Z,1.04
2022-10-18T03:53:53.938Z,1.04
2022-10-18T03:54:54.081Z,1.04
2022-10-18T03:55:54.241Z,1.04
2022-10-18T03:56:54.384Z,1.04
2022-10-18T03:57:54.561Z,1.04
2022-10-18T03:58:54.701Z,1.04
2022-10-18T03:59:55.389Z,1.04
2022-10-18T04:00:54.987Z,1.04
2022-10-18T04:01:55.206Z,1.04
2022-10-18T04:02:55.961Z,1.04
2022-10-18T04:03:55.455Z,1.04
2022-10-18T04:04:55.597Z,1.04
2022-10-18T04:05:55.723Z,1.04
2022-10-18T04:06:55.863Z,1.04
2022-10-18T04:07:56.020Z,1.04
2022-10-18T04:08:56.165Z,1.04
2022-10-18T04:09:56.268Z,1.04
2022-10-18T04:10:56.417Z,1.04
2022-10-18T04:11:56.523Z,1.04
2022-10-18T04:12:56.627Z,1.04
2022-10-18T04:13:56.772Z,1.04
2022-10-18T04:14:57.443Z,1.04
2022-10-18T04:15:57.001Z,1.04
2022-10-18T04:16:57.139Z,1.04
2022-10-18T04:17:57.280Z,1.04
2022-10-18T04:18:57.432Z,1.04
2022-10-18T04:19:57.589Z,1.04
2022-10-18T04:20:57.751Z,1.04
2022-10-18T04:21:57.850Z,1.04
2022-10-18T04:22:57.982Z,1.04
2022-10-18T04:23:58.146Z,1.04
2022-10-18T04:24:58.300Z,1.04
2022-10-18T04:25:58.453Z,1.04
2022-10-18T04:26:58.611Z,1.04
2022-10-18T04:27:58.745Z,1.04
2022-10-18T04:28:58.950Z,1.04
2022-10-18T04:29:59.601Z,1.04
2022-10-18T04:30:59.190Z,1.04
2022-10-18T04:31:59.380Z,1.04
2022-10-18T04:32:59.510Z,1.04
2022-10-18T04:33:59.696Z,1.04
2022-10-18T04:35:00.457Z,1.04
2022-10-18T04:35:59.958Z,1.04
2022-10-18T04:37:00.139Z,1.04
2022-10-18T04:38:00.270Z,1.04
2022-10-18T04:39:00.415Z,1.04
2022-10-18T04:40:00.604Z,1.04
2022-10-18T04:41:00.729Z,1.04
2022-10-18T04:42:00.840Z,1.04
2022-10-18T04:43:00.980Z,1.04
2022-10-18T04:44:01.089Z,1.04
2022-10-18T04:45:01.905Z,1.04
2022-10-18T04:46:01.321Z,1.04
2022-10-18T04:47:01.515Z,1.04
2022-10-18T04:48:01.637Z,1.04
2022-10-18T04:49:01.810Z,1.04
2022-10-18T04:50:01.889Z,1.04
2022-10-18T04:51:02.040Z,1.04
2022-10-18T04:52:02.186Z,1.04
2022-10-18T04:53:02.349Z,1.04
2022-10-18T04:54:02.466Z,1.04
2022-10-18T04:55:02.602Z,1.04
2022-10-18T04:56:02.747Z,1.04
2022-10-18T04:57:02.910Z,1.04
2022-10-18T04:58:03.059Z,2
2022-10-18T04:59:03.221Z,2
2022-10-18T05:00:03.879Z,2
2022-10-18T05:01:03.452Z,2
2022-10-18T05:03:04.734Z,3.04
2022-10-18T05:04:03.906Z,3.04
2022-10-18T05:05:04.058Z,4
2022-10-18T05:06:04.224Z,4
2022-10-18T05:07:04.373Z,5.04
2022-10-18T05:08:04.510Z,5.04
2022-10-18T05:09:04.667Z,6
2022-10-18T05:10:04.820Z,6
2022-10-18T05:11:05.600Z,7.04
2022-10-18T05:12:05.135Z,7.04
2022-10-18T05:13:05.279Z,8
2022-10-18T05:14:05.377Z,9.04
2022-10-18T05:15:06.057Z,11.04
2022-10-18T05:16:05.685Z,12
2022-10-18T05:17:05.856Z,14
2022-10-18T05:18:06.003Z,16
2022-10-18T05:19:06.087Z,18
2022-10-18T05:20:06.288Z,21.04
2022-10-18T05:21:06.385Z,23.04
2022-10-18T05:22:06.551Z,27.04
2022-10-18T05:23:06.697Z,30
2022-10-18T05:24:06.847Z,34
2022-10-18T05:25:07.003Z,37.04
2022-10-18T05:26:07.200Z,42
2022-10-18T05:27:07.313Z,45.04
2022-10-18T05:28:10.737Z,50
2022-10-18T05:29:07.749Z,53.04
2022-10-18T05:30:08.227Z,57.04
2022-10-18T05:31:07.879Z,63.04
2022-10-18T05:32:08.021Z,68
2022-10-18T05:33:08.161Z,75.04
2022-10-18T05:34:08.312Z,92
2022-10-18T05:35:08.466Z,102
2022-10-18T05:36:08.610Z,112
2022-10-18T05:37:08.722Z,125.04
2022-10-18T05:38:08.870Z,136
2022-10-18T05:39:09.040Z,150
2022-10-18T05:40:09.136Z,161.04
2022-10-18T05:41:09.271Z,172
2022-10-18T05:42:09.425Z,183.04
2022-10-18T05:43:09.583Z,199.04
2022-10-18T05:44:09.736Z,213.12
2022-10-18T05:45:10.407Z,236
2022-10-18T05:46:13.879Z,257.12
2022-10-18T05:47:10.134Z,283.04
2022-10-18T05:48:10.241Z,317.12
2022-10-18T05:49:10.399Z,349.12
2022-10-18T05:50:10.552Z,384
2022-10-18T05:51:10.696Z,409.28
2022-10-18T05:52:10.796Z,429.12
2022-10-18T05:53:12.197Z,446.08
2022-10-18T05:54:11.104Z,492.16
2022-10-18T05:55:11.250Z,551.04
2022-10-18T05:56:11.481Z,621.12
2022-10-18T05:57:12.118Z,662.4
2022-10-18T05:58:11.710Z,700.16
2022-10-18T05:59:11.977Z,739.2
2022-10-18T06:00:12.610Z,757.12
2022-10-18T06:01:12.155Z,751.36
2022-10-18T06:02:12.375Z,719.36
2022-10-18T06:03:12.466Z,696.32
2022-10-18T06:04:12.610Z,683.52
2022-10-18T06:05:12.775Z,690.56
2022-10-18T06:06:12.928Z,725.12
2022-10-18T06:07:13.088Z,800
2022-10-18T06:08:13.181Z,881.28
2022-10-18T06:09:13.323Z,907.52
2022-10-18T06:10:13.473Z,879.36
2022-10-18T06:11:13.633Z,892.16
2022-10-18T06:12:13.780Z,918.4
2022-10-18T06:13:13.932Z,925.44
2022-10-18T06:14:14.081Z,925.44
2022-10-18T06:15:14.864Z,940.16
2022-10-18T06:16:14.422Z,962.56
2022-10-18T06:17:14.492Z,955.52
2022-10-18T06:18:14.645Z,921.6
2022-10-18T06:19:14.755Z,887.04
2022-10-18T06:20:14.899Z,849.28
2022-10-18T06:21:15.005Z,807.04
2022-10-18T06:22:15.146Z,769.28
2022-10-18T06:23:15.304Z,761.6
2022-10-18T06:24:15.461Z,758.4
2022-10-18T06:25:15.606Z,767.36
2022-10-18T06:26:15.780Z,812.16
2022-10-18T06:27:15.908Z,864
2022-10-18T06:28:16.060Z,892.16
2022-10-18T06:29:16.221Z,904.32
2022-10-18T06:30:16.989Z,878.08
2022-10-18T06:31:16.463Z,858.24
2022-10-18T06:32:16.630Z,855.04
2022-10-18T06:33:16.763Z,886.4
2022-10-18T06:34:16.872Z,935.04
2022-10-18T06:35:17.023Z,1044.48
2022-10-18T06:36:17.177Z,1153.28
2022-10-18T06:37:17.281Z,1260.16
2022-10-18T06:38:17.455Z,1447.68
2022-10-18T06:39:17.547Z,1664
2022-10-18T06:40:17.701Z,2030.08
2022-10-18T06:41:17.836Z,2248.96
2022-10-18T06:42:19.121Z,2316.8
2022-10-18T06:43:20.844Z,2215.68
2022-10-18T06:44:18.283Z,2007.04
2022-10-18T06:45:18.976Z,1868.8
2022-10-18T06:46:18.586Z,1779.2
2022-10-18T06:47:18.754Z,1765.12
2022-10-18T06:49:20.127Z,1766.4
2022-10-18T06:50:19.190Z,1728
2022-10-18T06:51:19.344Z,1652.48
2022-10-18T06:52:19.505Z,1591.04
2022-10-18T06:53:19.656Z,1574.4
2022-10-18T06:54:19.780Z,1583.36
2022-10-18T06:55:19.916Z,1629.44
2022-10-18T06:56:20.053Z,1672.96
2022-10-18T06:57:20.216Z,1660.16
2022-10-18T06:58:20.353Z,1617.92
2022-10-18T06:59:20.467Z,1569.28
2022-10-18T07:00:21.187Z,1477.12
2022-10-18T07:01:20.843Z,1388.8
2022-10-18T07:02:20.919Z,1329.92
2022-10-18T07:03:21.076Z,1324.8
2022-10-18T07:04:21.224Z,1351.68
2022-10-18T07:05:21.428Z,1392.64
2022-10-18T07:06:21.483Z,1483.52
2022-10-18T07:07:21.628Z,1642.24
2022-10-18T07:08:21.782Z,1698.56
2022-10-18T07:09:21.931Z,1664
2022-10-18T07:10:22.084Z,1625.6
2022-10-18T07:11:22.191Z,1688.32
2022-10-18T07:12:22.285Z,1853.44
2022-10-18T07:13:32.231Z,1980.16
2022-10-18T07:14:25.778Z,1989.12
2022-10-18T07:15:23.348Z,1954.56
2022-10-18T07:16:22.897Z,1917.44
2022-10-18T07:17:23.018Z,1859.84
2022-10-18T07:18:23.148Z,1783.04
2022-10-18T07:19:23.298Z,1690.88
2022-10-18T07:20:23.458Z,1646.08
2022-10-18T07:21:23.617Z,1623.04
2022-10-18T07:22:27.037Z,1621.76
2022-10-18T07:23:23.911Z,1612.8
2022-10-18T07:24:24.163Z,1594.88
2022-10-18T07:25:25.867Z,1580.8
2022-10-18T07:26:24.372Z,1611.52
2022-10-18T07:27:24.515Z,1619.2
2022-10-18T07:28:24.695Z,1672.96
2022-10-18T07:29:25.045Z,2151.68
2022-10-18T07:30:25.713Z,2657.28
2022-10-18T07:31:25.327Z,2915.84
2022-10-18T07:32:25.474Z,3169.28
2022-10-18T07:33:25.640Z,3392
2022-10-18T07:34:25.771Z,3791.36
2022-10-18T07:35:26.137Z,4185.6
2022-10-18T07:36:26.032Z,4756.48
2022-10-18T07:37:26.707Z,5204.48
2022-10-18T07:38:26.331Z,5760
2022-10-18T07:39:26.438Z,6149.12
2022-10-18T07:40:26.545Z,6343.68
2022-10-18T07:41:26.685Z,6251.52
2022-10-18T07:42:26.840Z,6164.48
2022-10-18T07:43:26.994Z,6190.08
2022-10-18T07:44:27.094Z,6615.04
2022-10-18T07:45:27.929Z,6937.6
2022-10-18T07:46:27.331Z,7306.24
2022-10-18T07:47:28.960Z,7352.32
2022-10-18T07:48:27.552Z,6942.72
2022-10-18T07:49:27.701Z,6307.84
2022-10-18T07:50:27.858Z,6164.48
2022-10-18T07:51:28.021Z,6640.64
2022-10-18T07:52:28.181Z,7592.96
2022-10-18T07:53:28.309Z,8688.64
2022-10-18T07:54:28.455Z,9216
2022-10-18T07:55:28.626Z,9635.84
2022-10-18T07:56:28.777Z,9922.56
2022-10-18T07:57:28.927Z,11448.319
2022-10-18T07:58:29.068Z,10398.72
2022-10-18T07:59:29.172Z,10598.399
2022-10-18T08:00:29.802Z,10823.68
2022-10-18T08:01:29.476Z,11386.88
2022-10-18T08:02:29.572Z,12134.399
2022-10-18T08:03:29.722Z,13148.16
2022-10-18T08:04:29.877Z,15144.96
2022-10-18T08:05:30.112Z,21217.28
2022-10-18T08:06:30.181Z,15800.319
2022-10-18T08:07:30.606Z,15104
2022-10-18T08:08:30.439Z,14970.88
2022-10-18T08:09:30.576Z,14233.6
2022-10-18T08:10:30.774Z,15605.76
2022-10-18T08:11:30.875Z,26337.28
2022-10-18T08:12:31.039Z,11345.92
2022-10-18T08:13:31.183Z,10178.56
2022-10-18T08:14:31.280Z,8919.04
2022-10-18T08:15:31.980Z,8115.2
2022-10-18T08:17:33.106Z,6850.56
2022-10-18T08:18:31.842Z,6123.52
2022-10-18T08:19:31.952Z,5626.88
2022-10-18T08:20:32.155Z,5729.28
2022-10-18T08:21:32.262Z,6461.44
2022-10-18T08:22:32.403Z,7495.68
2022-10-18T08:23:32.565Z,8693.76
2022-10-18T08:24:32.714Z,8954.88
2022-10-18T08:25:32.927Z,8637.439
2022-10-18T08:26:32.968Z,8151.04
2022-10-18T08:27:33.436Z,7797.76
2022-10-18T08:28:33.315Z,7920.64
2022-10-18T08:29:33.472Z,8576
2022-10-18T08:30:33.998Z,9477.12
2022-10-18T08:31:33.737Z,10291.2
2022-10-18T08:32:34.022Z,10618.88
2022-10-18T08:33:34.019Z,10670.08
2022-10-18T08:34:34.192Z,10362.88
2022-10-18T08:35:34.293Z,9492.479
2022-10-18T08:36:34.905Z,8069.12
2022-10-18T08:37:34.939Z,7024.64
2022-10-18T08:38:34.741Z,6236.16
2022-10-18T08:39:34.889Z,5765.12
2022-10-18T08:40:34.991Z,5268.48
2022-10-18T08:41:35.163Z,4938.24
2022-10-18T08:42:35.461Z,4695.04
2022-10-18T08:44:36.551Z,5329.92
2022-10-18T08:45:41.791Z,6405.12
2022-10-18T08:46:35.842Z,7086.08
2022-10-18T08:47:36.000Z,8314.88
2022-10-18T08:48:36.158Z,9354.24
2022-10-18T08:49:36.313Z,10193.92
2022-10-18T08:50:36.418Z,11745.279
2022-10-18T08:51:36.593Z,12308.479
2022-10-18T08:52:36.770Z,12922.88
2022-10-18T08:53:39.134Z,14725.12
2022-10-18T08:54:37.012Z,15185.92
2022-10-18T08:55:37.190Z,15974.399
2022-10-18T08:56:37.314Z,16855.04
2022-10-18T08:57:37.467Z,17070.08
2022-10-18T08:58:37.577Z,16435.2
2022-10-18T08:59:37.729Z,14018.56
2022-10-18T09:00:38.351Z,12410.88
2022-10-18T09:01:38.065Z,10833.92
2022-10-18T09:02:38.078Z,10291.2
2022-10-18T09:03:38.262Z,10557.439
2022-10-18T09:04:38.382Z,11458.56
2022-10-18T09:05:38.537Z,12216.319
2022-10-18T09:06:38.695Z,12288
2022-10-18T09:07:38.791Z,12339.2
2022-10-18T09:08:38.992Z,12605.439
2022-10-18T09:09:39.664Z,13076.479
2022-10-18T09:10:39.254Z,14192.64
2022-10-18T09:11:39.403Z,14643.199
2022-10-18T09:12:39.557Z,16128
2022-10-18T09:13:39.701Z,19138.56
2022-10-18T09:14:40.320Z,20776.96
2022-10-18T09:15:40.006Z,24535.04
2022-10-18T09:16:40.116Z,16199.68
2022-10-18T09:17:40.279Z,18237.44
2022-10-18T09:18:40.404Z,25006.08
2022-10-18T09:19:40.570Z,19916.8
2022-10-18T09:20:40.707Z,16609.28
2022-10-18T09:21:40.883Z,18196.48
2022-10-18T09:22:41.016Z,19148.8
2022-10-18T09:23:41.122Z,18780.16
2022-10-18T09:24:41.281Z,17633.28
2022-10-18T09:25:41.418Z,16855.04
2022-10-18T09:26:41.569Z,18309.12
2022-10-18T09:27:41.702Z,18380.8
2022-10-18T09:28:41.875Z,18339.84
2022-10-18T09:29:42.446Z,19179.52
2022-10-18T09:30:42.068Z,25886.72
2022-10-18T09:31:42.229Z,19179.52
2022-10-18T09:32:42.339Z,18892.8
2022-10-18T09:33:42.425Z,20244.48
2022-10-18T09:34:42.539Z,30760.96
2022-10-18T09:35:42.650Z,29429.76
2022-10-18T09:36:42.786Z,48947.2
2022-10-18T09:37:42.944Z,28446.72
2022-10-18T09:38:43.107Z,43499.52
2022-10-18T09:39:43.257Z,39383.04
2022-10-18T09:40:43.405Z,26439.68
2022-10-18T09:41:43.500Z,26337.28
2022-10-18T09:42:43.672Z,28016.64
2022-10-18T09:43:43.760Z,27156.48
2022-10-18T09:44:43.857Z,22958.08
2022-10-18T09:45:43.979Z,19578.88
2022-10-18T09:46:44.137Z,17858.56
2022-10-18T09:47:44.835Z,13455.359
2022-10-18T09:48:44.464Z,10711.04
2022-10-18T09:49:44.617Z,10557.439
2022-10-18T09:50:44.766Z,10874.88
2022-10-18T09:51:44.920Z,11673.6
2022-10-18T09:52:45.071Z,11151.359
2022-10-18T09:53:45.181Z,11909.12
2022-10-18T09:54:45.278Z,15104
2022-10-18T09:55:45.382Z,17141.76
2022-10-18T09:56:45.583Z,17909.76
2022-10-18T09:57:45.681Z,17326.08
2022-10-18T09:58:45.835Z,15544.319
2022-10-18T09:59:46.510Z,12206.08
2022-10-18T10:00:46.087Z,8064
2022-10-18T10:01:46.196Z,6379.52
2022-10-18T10:02:46.412Z,4736
2022-10-18T10:03:46.483Z,4170.24
2022-10-18T10:04:46.642Z,3678.72
2022-10-18T10:05:46.803Z,3415.04
2022-10-18T10:06:46.954Z,2787.84
2022-10-18T10:07:47.047Z,2344.96
2022-10-18T10:08:47.207Z,3824.64
2022-10-18T10:09:47.319Z,4743.68
2022-10-18T10:10:47.462Z,4126.72
2022-10-18T10:11:47.611Z,3453.44
2022-10-18T10:12:47.765Z,3348.48
2022-10-18T10:13:47.864Z,4078.08
2022-10-18T10:14:48.580Z,4625.92
2022-10-18T10:15:48.149Z,4541.44
2022-10-18T10:16:48.308Z,5918.72
2022-10-18T10:17:48.468Z,5109.76
2022-10-18T10:18:48.612Z,4933.12
2022-10-18T10:19:48.767Z,4482.56
2022-10-18T10:20:48.925Z,4920.32
2022-10-18T10:21:49.072Z,5025.28
2022-10-18T10:22:49.260Z,4838.4
2022-10-18T10:23:49.371Z,4933.12
2022-10-18T10:24:49.527Z,4513.28
2022-10-18T10:25:49.684Z,4101.12
2022-10-18T10:26:49.843Z,3594.24
2022-10-18T10:27:49.981Z,3801.6
2022-10-18T10:28:50.183Z,4597.76
2022-10-18T10:29:50.905Z,5765.12
2022-10-18T10:30:50.451Z,6691.84
2022-10-18T10:31:50.593Z,8192
2022-10-18T10:32:50.747Z,9272.319
2022-10-18T10:33:50.890Z,9487.359
2022-10-18T10:34:51.046Z,7173.12
2022-10-18T10:35:53.973Z,5391.36
2022-10-18T10:36:51.360Z,5836.8
2022-10-18T10:37:51.506Z,5534.72
2022-10-18T10:38:51.661Z,5178.88
2022-10-18T10:40:06.979Z,4067.84
2022-10-18T10:40:51.966Z,3758.08
2022-10-18T10:41:52.107Z,3735.04
2022-10-18T10:42:54.451Z,4175.36
2022-10-18T10:43:52.419Z,4505.6
2022-10-18T10:44:53.093Z,3727.36
2022-10-18T10:45:52.707Z,3479.04
2022-10-18T10:46:52.811Z,3402.24
2022-10-18T10:47:52.959Z,3136
2022-10-18T10:49:00.579Z,3745.28
2022-10-18T10:49:53.277Z,3466.24
2022-10-18T10:50:54.447Z,3768.32
2022-10-18T10:51:57.772Z,3947.52
2022-10-18T10:52:53.677Z,4142.08
2022-10-18T10:53:53.841Z,4275.2
2022-10-18T10:54:58.257Z,3952.64
2022-10-18T10:55:54.095Z,3911.68
2022-10-18T10:56:54.187Z,5258.24
2022-10-18T10:57:54.279Z,5035.52
2022-10-18T10:58:54.517Z,4631.04
2022-10-18T10:59:55.218Z,4052.48
2022-10-18T11:00:54.742Z,3399.68
2022-10-18T11:01:54.893Z,2808.32
2022-10-18T11:02:59.437Z,2529.28
2022-10-18T11:03:55.259Z,2259.2
2022-10-18T11:04:55.353Z,2144
2022-10-18T11:05:55.530Z,2201.6
2022-10-18T11:06:55.659Z,2010.88
2022-10-18T11:07:55.809Z,1866.24
2022-10-18T11:08:55.962Z,2004.48
2022-10-18T11:09:56.103Z,2368
2022-10-18T11:10:56.265Z,2549.76
2022-10-18T11:11:56.417Z,2545.92
2022-10-18T11:12:56.563Z,2439.68
2022-10-18T11:14:13.498Z,2526.72
2022-10-18T11:14:57.443Z,2247.68
2022-10-18T11:15:56.974Z,2208
2022-10-18T11:16:57.120Z,2067.2
2022-10-18T11:17:57.308Z,2018.56
2022-10-18T11:18:57.393Z,2082.56
2022-10-18T11:19:57.540Z,2344.96
2022-10-18T11:20:57.671Z,2641.92
2022-10-18T11:21:57.834Z,3358.72
2022-10-18T11:22:58.002Z,4011.52
2022-10-18T11:23:58.149Z,4011.52
2022-10-18T11:24:58.286Z,3745.28
2022-10-18T11:25:58.435Z,3991.04
2022-10-18T11:26:58.595Z,4308.48
2022-10-18T11:27:58.745Z,3883.52
2022-10-18T11:28:58.938Z,3632.64
2022-10-18T11:29:59.481Z,3491.84
2022-10-18T11:30:59.142Z,3768.32
2022-10-18T11:31:59.298Z,3916.8
2022-10-18T11:32:59.456Z,3796.48
2022-10-18T11:34:09.071Z,3607.04
2022-10-18T11:34:59.751Z,3299.84
2022-10-18T11:36:03.631Z,2867.2
2022-10-18T11:37:22.776Z,2885.12
2022-10-18T11:38:00.129Z,3427.84
2022-10-18T11:39:00.276Z,3737.6
2022-10-18T11:40:00.419Z,3566.08
2022-10-18T11:41:00.573Z,3712
2022-10-18T11:42:00.720Z,3932.16
2022-10-18T11:43:00.870Z,3745.28
2022-10-18T11:44:02.879Z,3525.12
2022-10-18T11:45:01.671Z,3345.92
2022-10-18T11:46:01.319Z,3374.08
2022-10-18T11:47:01.469Z,3532.8
2022-10-18T11:48:01.625Z,3537.92
2022-10-18T11:49:01.784Z,3415.04
2022-10-18T11:50:01.926Z,3368.96
2022-10-18T11:51:02.076Z,4024.32
2022-10-18T11:52:07.628Z,4549.12
2022-10-18T11:53:02.436Z,4741.12
2022-10-18T11:54:02.493Z,5181.44
2022-10-18T11:55:02.645Z,4549.12
2022-10-18T11:56:02.794Z,4259.84
2022-10-18T11:57:02.967Z,3543.04
2022-10-18T11:58:03.052Z,3228.16
2022-10-18T11:59:03.203Z,3123.2
2022-10-18T12:00:03.828Z,3494.4
2022-10-18T12:01:03.491Z,4119.04
2022-10-18T12:02:03.648Z,4029.44
2022-10-18T12:03:03.912Z,3904
2022-10-18T12:04:03.962Z,4042.24
2022-10-18T12:05:23.386Z,4976.64
2022-10-18T12:06:04.260Z,5913.6
2022-10-18T12:07:04.404Z,6333.44
2022-10-18T12:08:04.561Z,6272
2022-10-18T12:09:04.715Z,5928.96
2022-10-18T12:10:04.835Z,5099.52
2022-10-18T12:11:05.987Z,4290.56
2022-10-18T12:12:05.161Z,3783.68
2022-10-18T12:13:05.297Z,3586.56
2022-10-18T12:14:05.369Z,3064.32
2022-10-18T12:15:06.205Z,2644.48
2022-10-18T12:16:05.674Z,2211.84
2022-10-18T12:17:39.201Z,1868.8
2022-10-18T12:18:05.938Z,1670.4
2022-10-18T12:19:06.037Z,1669.12
2022-10-18T12:20:06.228Z,1687.04
2022-10-18T12:21:06.281Z,1656.32
2022-10-18T12:22:06.439Z,1502.72
2022-10-18T12:23:06.607Z,1328.64
2022-10-18T12:24:06.742Z,1283.2
2022-10-18T12:25:06.883Z,1598.72
2022-10-18T12:26:07.044Z,2620.16
2022-10-18T12:27:07.189Z,3886.08
2022-10-18T12:28:07.370Z,5432.32
2022-10-18T12:29:07.562Z,6814.72
2022-10-18T12:30:08.404Z,7726.08
2022-10-18T12:31:07.803Z,7613.44
2022-10-18T12:32:08.001Z,7541.76
2022-10-18T12:33:27.000Z,7567.36
2022-10-18T12:34:08.256Z,6988.8
2022-10-18T12:35:08.414Z,6082.56
2022-10-18T12:36:08.566Z,5173.76
2022-10-18T12:37:08.742Z,4357.12
2022-10-18T12:38:08.849Z,3937.28
2022-10-18T12:39:08.957Z,4021.76
2022-10-18T12:40:11.314Z,4119.04
2022-10-18T12:41:09.270Z,4380.16
2022-10-18T12:42:09.419Z,4618.24
2022-10-18T12:43:09.573Z,4395.52
2022-10-18T12:44:09.744Z,4193.28
2022-10-18T12:45:10.503Z,4011.52